ADDS METAR Data INFO
IDs: Format: Raw Decoded Include TAF

Data at: 1133 UTC 29 May 2017

KEDC 291115Z AUTO 00000KT 10SM CLR 20/20 A2995 RMK AO2
KEDC 291055Z AUTO 00000KT 10SM CLR 20/20 A2994 RMK AO2
KEDC 291035Z AUTO 00000KT 10SM CLR 20/20 A2995 RMK AO2
KEDC 291015Z AUTO 00000KT 10SM CLR 20/20 A2996 RMK AO2
KEDC 290955Z AUTO 00000KT 10SM CLR 20/20 A2997 RMK AO2
KEDC 290935Z AUTO 00000KT 10SM FEW022 20/20 A2997 RMK AO2
KEDC 290915Z AUTO 00000KT 10SM BKN022 20/20 A2998 RMK AO2
KEDC 290855Z AUTO 00000KT 10SM BKN019 20/20 A2998 RMK AO2
KEDC 290835Z AUTO 00000KT 10SM FEW020 20/20 A2997 RMK AO2
KEDC 290815Z AUTO 00000KT 10SM BKN025 21/20 A2997 RMK AO2
KEDC 290755Z AUTO 04005KT 10SM OVC023 21/20 A2996 RMK AO2
KEDC 290735Z AUTO 00000KT 10SM OVC023 21/20 A2997 RMK AO2
KEDC 290715Z AUTO 00000KT 10SM BKN018 OVC022 21/20 A2998 RMK AO2
KEDC 290655Z AUTO 01007KT A2997 RMK AO2
KEDC 290615Z AUTO 00000KT 10SM CLR 22/21 A2995 RMK AO2
KEDC 290555Z AUTO 18006KT 10SM CLR 22/20 A2997 RMK AO2
KEDC 290535Z AUTO 33007KT 10SM FEW027 SCT070 BKN100 22/20 A2995 RMK AO2
KEDC 290515Z AUTO 33010KT 10SM FEW049 SCT065 BKN080 22/20 A2997 RMK AO2
KEDC 290455Z AUTO 00000KT 10SM -RA FEW045 SCT070 BKN090 22/20 A2999 RMK AO2
KEDC 290435Z AUTO 06005KT 10SM -RA FEW030 SCT050 BKN070 22/20 A2998 RMK AO2
KEDC 290415Z AUTO 05011G20KT 10SM FEW055 FEW065 22/21 A2997 RMK AO2
KEDC 290355Z AUTO 05011G16KT 10SM -RA FEW023 SCT050 BKN065 22/22 A2997 RMK AO2
KEDC 290335Z AUTO 02011KT 10SM -RA FEW028 SCT049 BKN065 22/22 A2999 RMK AO2
KEDC 290315Z AUTO 04011G16KT 10SM -RA SCT041 BKN050 OVC070 23/23 A2998 RMK AO2
KEDC 290255Z AUTO 07016KT 10SM -RA SCT040 BKN050 OVC070 23/23 A2998 RMK AO2
KEDC 290235Z AUTO 06010KT 10SM SCT014 BKN050 OVC070 24/24 A3001 RMK AO2
KEDC 290215Z AUTO 14005KT 10SM BKN014 BKN025 OVC070 23/23 A3003 RMK AO2
KEDC 290155Z AUTO 00000KT 10SM SCT017 BKN023 BKN029 22/22 A2998 RMK AO2
KEDC 290135Z AUTO 32011KT 10SM FEW015 FEW028 22/22 A2993 RMK AO2
KEDC 290115Z AUTO 32017G28KT 10SM FEW032 FEW075 SCT100 19/19 A2991 RMK AO2
KEDC 290055Z AUTO 15009KT 10SM FEW050 SCT060 BKN080 19/19 A2985 RMK AO2
KEDC 290035Z AUTO 17007KT 10SM FEW002 SCT055 BKN070 19/19 A2986 RMK AO2
KEDC 290015Z AUTO 27004KT 2 1/2SM +RA SCT002 BKN036 BKN043 18/18 A2991 RMK AO2
KEDC 282355Z AUTO 29030G40KT 6SM RA SCT002 SCT024 BKN041 20/20 A2990 RMK AO2
KEDC 282335Z AUTO 23009G19KT 160V240 2SM +RA BKN002 BKN026 BKN065 27/24 A2988 RMK AO2
KEDC 282315Z AUTO 00000KT 10SM FEW044 29/24 A2988 RMK AO2
KEDC 282255Z AUTO 00000KT 10SM SCT044 SCT085 30/24 A2986 RMK AO2
KEDC 282235Z AUTO 00000KT 10SM FEW065 31/23 A2987 RMK AO2
KEDC 282215Z AUTO 00000KT 10SM CLR 31/23 A2985 RMK AO2
KEDC 282155Z AUTO 00000KT 10SM CLR 32/23 A2984 RMK AO2
KEDC 282135Z AUTO 00000KT 10SM CLR 32/23 A2986 RMK AO2
KEDC 282115Z AUTO 15007KT 10SM CLR 32/23 A2988 RMK AO2
KEDC 282055Z AUTO 00000KT 10SM CLR 32/23 A2989 RMK AO2
KEDC 282035Z AUTO 18004KT 10SM CLR 32/23 A2990 RMK AO2
KEDC 282015Z AUTO 19006KT 10SM CLR 32/23 A2990 RMK AO2
KEDC 281955Z AUTO 15007KT 10SM CLR 32/23 A2990 RMK AO2
KEDC 281935Z AUTO 17006KT 10SM CLR 31/23 A2991 RMK AO2
KEDC 281915Z AUTO 14007KT 10SM CLR 32/23 A2991 RMK AO2
KEDC 281855Z AUTO 16007KT 10SM CLR 32/23 A2991 RMK AO2
KEDC 281835Z AUTO 16006KT 10SM CLR 31/23 A2991 RMK AO2
KEDC 281815Z AUTO 16006KT 10SM CLR 31/23 A2992 RMK AO2
KEDC 281755Z AUTO 00000KT 10SM CLR 31/24 A2992 RMK AO2
KEDC 281735Z AUTO 15006KT 10SM FEW028 30/24 A2992 RMK AO2
KEDC 281715Z AUTO 16006KT 10SM SCT028 30/24 A2993 RMK AO2
KEDC 281655Z AUTO 15005KT 10SM SCT028 29/23 A2993 RMK AO2
KEDC 281635Z AUTO 16007KT 10SM FEW028 30/23 A2993 RMK AO2
KEDC 281615Z AUTO 15007KT 10SM FEW023 29/23 A2992 RMK AO2
KEDC 281555Z AUTO 12004KT 10SM SCT023 BKN028 29/23 A2993 RMK AO2
KEDC 281535Z AUTO 00000KT 10SM BKN021 28/23 A2993 RMK AO2
KEDC 281515Z AUTO 15006KT 10SM BKN017 28/24 A2993 RMK AO2
KEDC 281455Z AUTO 00000KT 10SM SCT019 28/24 A2993 RMK AO2
KEDC 281435Z AUTO 00000KT 10SM BKN019 27/24 A2993 RMK AO2
KEDC 281415Z AUTO 00000KT 10SM BKN016 26/24 A2992 RMK AO2
KEDC 281355Z AUTO 00000KT 10SM BKN013 26/24 A2993 RMK AO2
KEDC 281335Z AUTO 00000KT 10SM CLR 25/24 A2991 RMK AO2
KEDC 281315Z AUTO 00000KT 10SM CLR 25/24 A2990 RMK AO2
KEDC 281255Z AUTO 00000KT 10SM CLR 24/24 A2989 RMK AO2
KEDC 281235Z AUTO 00000KT 10SM CLR 24/24 A2988 RMK AO2
KEDC 281215Z AUTO 00000KT 10SM CLR 23/23 A2987 RMK AO2
KEDC 281155Z AUTO 00000KT 10SM CLR 23/23 A2987 RMK AO2
KEDC 281135Z AUTO 00000KT 10SM SCT022 23/23 A2986 RMK AO2
KEDC 281115Z AUTO 20006KT 10SM OVC022 24/24 A2985 RMK AO2
KEDC 281055Z AUTO 19004KT 10SM OVC020 24/24 A2984 RMK AO2
KEDC 281035Z AUTO 20006KT 10SM OVC018 24/24 A2984 RMK AO2
KEDC 281015Z AUTO 21003KT 10SM OVC014 24/24 A2985 RMK AO2
KEDC 280955Z AUTO 21004KT 10SM OVC014 24/24 A2984 RMK AO2
KEDC 280935Z AUTO 21005KT 10SM OVC016 24/24 A2984 RMK AO2
KEDC 280915Z AUTO 20006KT 10SM OVC014 24/24 A2983 RMK AO2
KEDC 280855Z AUTO 20005KT 10SM OVC014 24/24 A2983 RMK AO2
KEDC 280835Z AUTO 22004KT 10SM OVC012 24/23 A2984 RMK AO2
KEDC 280815Z AUTO 20008KT 10SM OVC012 24/24 A2982 RMK AO2
KEDC 280755Z AUTO 20011KT 10SM OVC012 24/24 A2981 RMK AO2
KEDC 280735Z AUTO 20010G18KT 10SM OVC012 24/24 A2980 RMK AO2
KEDC 280715Z AUTO 20011G16KT 10SM BKN012 24/24 A2980 RMK AO2
KEDC 280655Z AUTO 18011G17KT 10SM OVC012 24/24 A2981 RMK AO2
KEDC 280635Z AUTO 19009G16KT 10SM 24/24 A2983 RMK AO2
KEDC 280615Z AUTO 19005KT A2985 RMK AO2
KEDC 280555Z AUTO 10SM 24/24 RMK AO2
KEDC 280435Z AUTO 18007KT 10SM SCT017 BKN027 25/23 A2988 RMK AO2
KEDC 280415Z AUTO 18008KT 10SM SCT028 25/23 A2989 RMK AO2
KEDC 280355Z AUTO 18007KT 10SM CLR 25/23 A2988 RMK AO2
KEDC 280335Z AUTO 17007KT 10SM CLR 26/23 A2988 RMK AO2
KEDC 280315Z AUTO 17007G14KT 10SM CLR 27/22 A2987 RMK AO2
KEDC 280255Z AUTO 16008KT 10SM CLR 27/22 A2985 RMK AO2
KEDC 280235Z AUTO 16009KT 10SM CLR 27/22 A2985 RMK AO2
KEDC 280215Z AUTO 17007KT 10SM CLR 28/23 A2984 RMK AO2
KEDC 280155Z AUTO 16009G16KT 10SM CLR 28/23 A2984 RMK AO2
KEDC 280135Z AUTO 16008KT 10SM CLR 29/24 A2983 RMK AO2
KEDC 280115Z AUTO 15010G16KT 10SM CLR 29/24 A2982 RMK AO2
KEDC 280055Z AUTO 15011G15KT 10SM CLR 30/24 A2982 RMK AO2
KEDC 280035Z AUTO 15012KT 10SM CLR 31/23 A2981 RMK AO2
KEDC 280015Z AUTO 16008G17KT 10SM CLR 32/23 A2981 RMK AO2
KEDC 272355Z AUTO 16008G14KT 10SM CLR 32/24 A2980 RMK AO2
KEDC 272335Z AUTO 17008G14KT 10SM CLR 32/24 A2981 RMK AO2


Page loaded:  11:33 UTC  |   04:33 AM Pacific  |   05:33 AM Mountain  |   06:33 AM Central  |   07:33 AM Eastern

 

ADVISORIES

FORECASTS

FORECASTS

OBSERVATIONS

USER TOOLS

ABOUT US